createdAt,value
2018-03-24T00:01:46.172Z,6.60
2018-03-24T00:04:19.773Z,7.27
2018-03-24T00:06:52.884Z,6.80
2018-03-24T00:09:27.933Z,7.07
2018-03-24T00:12:01.557Z,7.00
2018-03-24T00:14:34.737Z,7.83
2018-03-24T00:17:09.254Z,7.27
2018-03-24T00:19:42.880Z,7.37
2018-03-24T00:22:15.961Z,7.23
2018-03-24T00:24:51.957Z,7.50
2018-03-24T00:27:26.268Z,7.30
2018-03-24T00:29:59.421Z,7.70
2018-03-24T00:32:32.664Z,7.50
2018-03-24T00:35:06.443Z,8.10
2018-03-24T00:37:39.374Z,8.27
2018-03-24T00:40:13.548Z,7.73
2018-03-24T00:42:47.466Z,8.30
2018-03-24T00:45:20.858Z,8.07
2018-03-24T00:47:54.430Z,7.57
2018-03-24T00:50:27.967Z,7.90
2018-03-24T00:53:01.144Z,8.70
2018-03-24T00:55:34.482Z,7.87
2018-03-24T00:58:07.911Z,7.80
2018-03-24T01:00:41.166Z,9.20
2018-03-24T01:03:14.520Z,8.97
2018-03-24T01:05:48.385Z,9.23
2018-03-24T01:08:21.628Z,8.63
2018-03-24T01:10:54.764Z,9.10
2018-03-24T01:13:29.608Z,8.90
2018-03-24T01:16:02.621Z,9.07
2018-03-24T01:18:36.652Z,8.43
2018-03-24T01:21:11.675Z,7.90
2018-03-24T01:23:44.760Z,8.07
2018-03-24T01:26:17.754Z,9.10
2018-03-24T01:28:51.128Z,8.53
2018-03-24T01:31:24.174Z,7.80
2018-03-24T01:33:57.817Z,8.90
2018-03-24T01:36:31.167Z,8.20
2018-03-24T01:39:04.413Z,8.53
2018-03-24T01:41:37.762Z,8.40
2018-03-24T01:44:11.246Z,9.20
2018-03-24T01:46:44.420Z,8.63
2018-03-24T01:49:18.481Z,9.17
2018-03-24T01:51:52.008Z,8.30
2018-03-24T01:54:25.784Z,8.53
2018-03-24T01:56:59.648Z,8.30
2018-03-24T01:59:32.671Z,8.37
2018-03-24T02:02:06.610Z,8.60
2018-03-24T02:04:40.209Z,8.70
2018-03-24T02:07:13.214Z,9.37
2018-03-24T02:09:47.332Z,8.87
2018-03-24T02:12:20.763Z,10.70
2018-03-24T02:14:54.085Z,9.50
2018-03-24T02:17:27.259Z,8.70
2018-03-24T02:20:03.325Z,9.13
2018-03-24T02:22:37.068Z,9.57
2018-03-24T02:25:10.166Z,10.20
2018-03-24T02:27:43.484Z,9.60
2018-03-24T02:30:16.689Z,9.33
2018-03-24T02:32:50.049Z,10.83
2018-03-24T02:35:24.008Z,9.63
2018-03-24T02:37:57.099Z,10.57
2018-03-24T02:40:30.424Z,10.13
2018-03-24T02:43:04.720Z,8.67
2018-03-24T02:45:37.763Z,9.10
2018-03-24T02:48:11.521Z,8.70
2018-03-24T02:50:45.287Z,8.93
2018-03-24T02:53:18.440Z,8.40
2018-03-24T02:55:51.855Z,9.40
2018-03-24T02:58:25.741Z,8.00
2018-03-24T03:00:58.821Z,7.50
2018-03-24T03:03:32.338Z,7.77
2018-03-24T03:06:06.523Z,7.67
2018-03-24T03:08:41.409Z,7.70
2018-03-24T03:11:14.860Z,9.00
2018-03-24T03:13:49.280Z,8.57
2018-03-24T03:16:22.676Z,8.90
2018-03-24T03:18:55.950Z,8.50
2018-03-24T03:21:34.641Z,7.83
2018-03-24T03:24:09.089Z,7.23
2018-03-24T03:26:43.872Z,7.20
2018-03-24T03:29:16.954Z,7.43
2018-03-24T03:31:50.394Z,9.37
2018-03-24T03:34:24.653Z,9.73
2018-03-24T03:36:59.112Z,10.07
2018-03-24T03:39:34.059Z,10.70
2018-03-24T03:42:07.220Z,8.77
2018-03-24T03:44:40.557Z,8.50
2018-03-24T03:47:13.988Z,8.27
2018-03-24T03:49:47.032Z,8.30
2018-03-24T03:52:20.628Z,8.60
2018-03-24T03:54:54.970Z,9.43
2018-03-24T03:57:28.906Z,9.80
2018-03-24T04:00:03.381Z,10.43
2018-03-24T04:02:38.269Z,9.30
2018-03-24T04:05:11.866Z,9.53
2018-03-24T04:07:44.970Z,10.53
2018-03-24T04:10:19.328Z,9.40
2018-03-24T04:12:52.940Z,9.60
2018-03-24T04:15:26.264Z,9.63
2018-03-24T04:17:59.594Z,8.77
2018-03-24T04:20:33.257Z,9.77
2018-03-24T04:23:06.868Z,10.97
2018-03-24T04:25:40.359Z,10.63
2018-03-24T04:28:14.218Z,10.23
2018-03-24T04:30:47.598Z,8.87
2018-03-24T04:33:21.743Z,9.40
2018-03-24T04:35:55.947Z,10.43
2018-03-24T04:38:29.204Z,11.27
2018-03-24T04:41:02.856Z,10.93
2018-03-24T04:43:36.356Z,9.60
2018-03-24T04:46:09.663Z,9.90
2018-03-24T04:48:42.899Z,10.33
2018-03-24T04:51:16.369Z,11.93
2018-03-24T04:53:50.361Z,10.57
2018-03-24T04:56:24.106Z,9.93
2018-03-24T04:58:57.598Z,10.03
2018-03-24T05:01:30.797Z,11.37
2018-03-24T05:04:04.749Z,10.90
2018-03-24T05:06:37.897Z,10.57
2018-03-24T05:09:11.378Z,10.87
2018-03-24T05:11:44.407Z,10.17
2018-03-24T05:14:17.899Z,9.27
2018-03-24T05:16:51.058Z,9.33
2018-03-24T05:19:25.520Z,9.07
2018-03-24T05:21:59.055Z,9.53
2018-03-24T05:24:33.787Z,9.47
2018-03-24T05:27:07.686Z,10.00
2018-03-24T05:29:41.042Z,9.83
2018-03-24T05:32:14.620Z,12.07
2018-03-24T05:34:48.285Z,16.43
2018-03-24T05:37:21.759Z,13.60
2018-03-24T05:39:55.087Z,10.63
2018-03-24T05:42:28.189Z,10.50
2018-03-24T05:45:02.238Z,11.10
2018-03-24T05:47:35.323Z,10.30
2018-03-24T05:50:09.154Z,10.10
2018-03-24T05:52:42.294Z,9.90
2018-03-24T05:55:15.917Z,10.67
2018-03-24T05:57:49.216Z,10.93
2018-03-24T06:00:22.472Z,10.50
2018-03-24T06:02:56.063Z,10.50
2018-03-24T06:05:30.157Z,10.40
2018-03-24T06:08:04.059Z,11.23
2018-03-24T06:10:38.021Z,10.57
2018-03-24T06:13:11.659Z,9.93
2018-03-24T06:15:44.821Z,11.30
2018-03-24T06:18:18.051Z,10.23
2018-03-24T06:20:59.390Z,10.50
2018-03-24T06:23:39.719Z,13.60
2018-03-24T06:26:15.721Z,14.47
2018-03-24T06:28:52.356Z,12.90
2018-03-24T06:31:26.287Z,12.90
2018-03-24T06:33:59.674Z,13.17
2018-03-24T06:36:35.269Z,14.03
2018-03-24T06:39:08.864Z,12.93
2018-03-24T06:41:42.199Z,11.23
2018-03-24T06:44:16.265Z,11.70
2018-03-24T06:46:49.559Z,13.77
2018-03-24T06:49:22.680Z,13.33
2018-03-24T06:51:57.211Z,12.53
2018-03-24T06:54:30.619Z,13.50
2018-03-24T06:57:04.811Z,12.73
2018-03-24T06:59:38.316Z,13.37
2018-03-24T07:02:12.252Z,14.30
2018-03-24T07:04:45.950Z,13.77
2018-03-24T07:07:19.077Z,13.07
2018-03-24T07:09:52.295Z,13.37
2018-03-24T07:12:29.138Z,13.53
2018-03-24T07:15:42.132Z,13.53
2018-03-24T07:18:18.776Z,13.20
2018-03-24T07:20:54.588Z,13.30
2018-03-24T07:23:28.533Z,13.50
2018-03-24T07:26:01.819Z,13.00
2018-03-24T07:28:35.007Z,13.30
2018-03-24T07:31:08.794Z,13.23
2018-03-24T07:33:42.230Z,13.73
2018-03-24T07:36:16.924Z,13.27
2018-03-24T07:38:51.948Z,13.50
2018-03-24T07:41:25.470Z,12.60
2018-03-24T07:43:58.859Z,14.00
2018-03-24T07:46:32.465Z,13.63
2018-03-24T07:49:05.468Z,15.43
2018-03-24T07:51:40.918Z,19.73
2018-03-24T07:54:15.041Z,28.77
2018-03-24T07:56:48.201Z,27.40
2018-03-24T07:59:23.260Z,25.17
2018-03-24T08:01:56.538Z,22.03
2018-03-24T08:04:29.804Z,19.53
2018-03-24T08:07:04.352Z,17.97
2018-03-24T08:09:37.366Z,18.40
2018-03-24T08:12:10.611Z,16.30
2018-03-24T08:14:48.533Z,20.35
2018-03-24T08:17:21.688Z,19.00
2018-03-24T08:19:55.424Z,18.23
2018-03-24T08:22:32.836Z,18.10
2018-03-24T08:27:47.685Z,17.23
2018-03-24T08:30:21.113Z,18.30
2018-03-24T08:32:54.406Z,17.93
2018-03-24T08:35:29.950Z,16.17
2018-03-24T08:38:04.021Z,17.20
2018-03-24T08:40:37.628Z,18.63
2018-03-24T08:43:14.754Z,16.93
2018-03-24T08:45:52.310Z,17.70
2018-03-24T08:48:28.029Z,18.33
2018-03-24T08:51:13.260Z,18.27
2018-03-24T08:53:48.027Z,15.40
2018-03-24T08:56:23.262Z,15.40
2018-03-24T08:58:59.224Z,14.63
2018-03-24T09:01:44.833Z,16.00
2018-03-24T09:04:31.986Z,14.90
2018-03-24T09:07:11.248Z,17.23
2018-03-24T09:13:42.713Z,15.57
2018-03-24T09:16:23.916Z,15.10
2018-03-24T09:18:57.878Z,15.67
2018-03-24T09:21:35.253Z,14.67
2018-03-24T09:24:09.994Z,14.80
2018-03-24T09:26:45.382Z,14.60
2018-03-24T09:29:18.863Z,14.23
2018-03-24T09:31:56.302Z,16.20
2018-03-24T09:34:32.325Z,15.83
2018-03-24T09:37:06.682Z,16.20
2018-03-24T09:39:40.246Z,16.30
2018-03-24T09:42:13.950Z,13.60
2018-03-24T09:44:48.330Z,15.23
2018-03-24T09:47:23.231Z,13.63
2018-03-24T09:49:57.029Z,14.47
2018-03-24T09:52:30.062Z,14.47
2018-03-24T09:55:03.717Z,13.07
2018-03-24T09:57:38.290Z,11.87
2018-03-24T10:00:11.421Z,11.27
2018-03-24T10:02:44.549Z,11.30
2018-03-24T10:05:19.319Z,11.53
2018-03-24T10:08:06.648Z,10.87
2018-03-24T10:10:41.920Z,10.90
2018-03-24T10:13:15.450Z,10.53
2018-03-24T10:15:49.805Z,10.20
2018-03-24T10:18:23.189Z,9.80
2018-03-24T10:21:00.379Z,11.13
2018-03-24T10:23:34.161Z,10.70
2018-03-24T10:26:07.828Z,11.97
2018-03-24T10:28:42.790Z,11.97
2018-03-24T10:31:16.851Z,11.70
2018-03-24T10:33:54.616Z,10.53
2018-03-24T10:36:28.232Z,10.73
2018-03-24T10:39:02.497Z,10.23
2018-03-24T10:41:36.515Z,11.07
2018-03-24T10:44:10.328Z,10.17
2018-03-24T10:46:46.755Z,7.97
2018-03-24T10:50:49.315Z,10.20
2018-03-24T10:53:24.907Z,11.20
2018-03-24T10:55:59.051Z,12.90
2018-03-24T10:58:36.033Z,11.43
2018-03-24T11:01:14.437Z,11.03
2018-03-24T11:03:48.080Z,11.07
2018-03-24T11:06:21.324Z,11.50
2018-03-24T11:08:54.835Z,10.80
2018-03-24T11:11:28.438Z,10.80
2018-03-24T11:14:02.590Z,11.30
2018-03-24T11:16:36.035Z,10.47
2018-03-24T11:19:09.237Z,11.63
2018-03-24T11:21:43.086Z,11.67
2018-03-24T11:24:17.588Z,11.03
2018-03-24T11:26:51.025Z,11.07
2018-03-24T11:29:26.802Z,10.90
2018-03-24T11:32:01.811Z,9.70
2018-03-24T11:34:35.584Z,10.90
2018-03-24T11:37:10.389Z,11.07
2018-03-24T11:39:45.245Z,11.27
2018-03-24T11:42:19.072Z,11.63
2018-03-24T11:44:52.282Z,10.13
2018-03-24T11:47:27.120Z,11.90
2018-03-24T11:50:01.874Z,11.40
2018-03-24T11:52:36.440Z,11.37
2018-03-24T11:55:11.515Z,10.70
2018-03-24T11:57:45.646Z,11.37
2018-03-24T12:00:21.418Z,9.87
2018-03-24T12:02:55.405Z,10.90
2018-03-24T12:05:29.408Z,12.03
2018-03-24T12:08:21.036Z,12.43
2018-03-24T12:10:54.764Z,11.57
2018-03-24T12:13:28.881Z,10.90
2018-03-24T12:16:02.609Z,12.03
2018-03-24T12:18:36.153Z,11.03
2018-03-24T12:21:11.561Z,11.00
2018-03-24T12:23:45.824Z,12.20
2018-03-24T12:26:22.801Z,11.77
2018-03-24T12:28:56.847Z,11.80
2018-03-24T12:31:31.145Z,11.23
2018-03-24T12:34:05.969Z,11.60
2018-03-24T12:36:40.648Z,11.80
2018-03-24T12:39:14.062Z,10.97
2018-03-24T12:41:47.796Z,11.33
2018-03-24T12:44:21.103Z,10.27
2018-03-24T12:46:55.493Z,11.27
2018-03-24T12:49:28.704Z,10.43
2018-03-24T12:52:03.193Z,10.03
2018-03-24T12:54:36.775Z,10.53
2018-03-24T12:57:11.478Z,11.40
2018-03-24T12:59:45.918Z,10.03
2018-03-24T13:02:25.150Z,10.20
2018-03-24T13:05:01.576Z,10.27
2018-03-24T13:07:48.018Z,10.13
2018-03-24T13:10:43.102Z,11.93
2018-03-24T13:13:21.327Z,11.50
2018-03-24T13:15:58.714Z,10.67
2018-03-24T13:18:33.596Z,11.77
2018-03-24T13:21:07.152Z,11.37
2018-03-24T13:23:42.054Z,10.67
2018-03-24T13:26:18.956Z,10.80
2018-03-24T13:28:52.268Z,10.30
2018-03-24T13:31:42.858Z,9.97
2018-03-24T13:34:16.519Z,13.43
2018-03-24T13:36:51.851Z,13.23
2018-03-24T13:39:25.506Z,14.37
2018-03-24T13:42:00.017Z,14.80
2018-03-24T13:44:35.283Z,13.97
2018-03-24T13:47:11.211Z,13.47
2018-03-24T13:49:48.585Z,13.20
2018-03-24T13:52:22.949Z,13.57
2018-03-24T13:54:57.095Z,14.00
2018-03-24T13:57:30.523Z,13.97
2018-03-24T14:00:04.638Z,13.73
2018-03-24T14:02:38.839Z,13.90
2018-03-24T14:05:12.234Z,13.00
2018-03-24T14:07:48.119Z,13.13
2018-03-24T14:10:24.320Z,12.27
2018-03-24T14:12:58.006Z,13.20
2018-03-24T14:15:31.291Z,12.33
2018-03-24T14:18:04.694Z,12.50
2018-03-24T14:20:38.714Z,11.57
2018-03-24T14:23:12.133Z,12.73
2018-03-24T14:25:45.693Z,12.53
2018-03-24T14:28:20.770Z,12.17
2018-03-24T14:30:54.235Z,13.13
2018-03-24T14:33:29.089Z,13.50
2018-03-24T14:36:03.708Z,13.43
2018-03-24T14:38:36.859Z,12.87
2018-03-24T14:41:11.236Z,15.17
2018-03-24T14:43:44.952Z,13.53
2018-03-24T14:46:18.530Z,13.67
2018-03-24T14:48:53.598Z,12.83
2018-03-24T14:51:27.116Z,13.27
2018-03-24T14:54:01.835Z,13.37
2018-03-24T14:56:36.953Z,13.63
2018-03-24T14:59:12.437Z,12.87
2018-03-24T15:01:46.122Z,13.40
2018-03-24T15:04:20.741Z,12.93
2018-03-24T15:06:54.412Z,12.73
2018-03-24T15:09:27.518Z,13.73
2018-03-24T15:12:00.703Z,12.77
2018-03-24T15:14:34.686Z,12.40
2018-03-24T15:17:07.838Z,13.60
2018-03-24T15:19:42.419Z,16.53
2018-03-24T15:22:17.016Z,15.97
2018-03-24T15:24:50.622Z,13.17
2018-03-24T15:27:24.541Z,13.53
2018-03-24T15:30:12.759Z,14.00
2018-03-24T15:32:53.692Z,13.77
2018-03-24T15:38:32.161Z,15.40
2018-03-24T15:41:05.984Z,15.07
2018-03-24T15:43:39.944Z,15.87
2018-03-24T15:46:15.451Z,15.80
2018-03-24T15:48:50.382Z,14.37
2018-03-24T15:51:24.735Z,13.47
2018-03-24T15:54:00.133Z,13.17
2018-03-24T15:56:35.370Z,14.17
2018-03-24T15:59:09.571Z,14.07
2018-03-24T16:01:42.982Z,14.40
2018-03-24T16:04:18.311Z,13.50
2018-03-24T16:06:52.585Z,14.27
2018-03-24T16:09:27.471Z,12.70
2018-03-24T16:12:03.768Z,12.77
2018-03-24T16:14:38.149Z,13.47
2018-03-24T16:17:12.459Z,14.13
2018-03-24T16:19:47.965Z,13.87
2018-03-24T16:22:26.978Z,15.07
2018-03-24T16:25:01.584Z,13.73
2018-03-24T16:27:35.908Z,14.30
2018-03-24T16:30:10.331Z,15.10
2018-03-24T16:32:45.686Z,15.63
2018-03-24T16:35:19.070Z,13.43
2018-03-24T16:37:52.649Z,13.77
2018-03-24T16:40:26.083Z,13.10
2018-03-24T16:43:00.053Z,13.23
2018-03-24T16:45:35.172Z,14.20
2018-03-24T16:48:10.643Z,13.47
2018-03-24T16:50:45.317Z,12.93
2018-03-24T16:53:21.703Z,14.97
2018-03-24T16:55:58.354Z,13.50
2018-03-24T16:58:32.793Z,15.00
2018-03-24T17:01:07.044Z,14.03
2018-03-24T17:03:40.713Z,12.90
2018-03-24T17:06:18.457Z,14.57
2018-03-24T17:08:52.980Z,14.13
2018-03-24T17:11:27.809Z,14.70
2018-03-24T17:14:01.399Z,16.80
2018-03-24T17:16:35.513Z,17.70
2018-03-24T17:19:10.903Z,15.47
2018-03-24T17:21:44.223Z,16.57
2018-03-24T17:24:18.740Z,16.03
2018-03-24T17:26:54.142Z,18.63
2018-03-24T17:29:29.056Z,18.43
2018-03-24T17:32:02.721Z,18.63
2018-03-24T17:34:36.850Z,18.50
2018-03-24T17:37:12.827Z,19.03
2018-03-24T17:39:46.364Z,19.73
2018-03-24T17:42:19.887Z,18.93
2018-03-24T17:44:54.217Z,20.17
2018-03-24T17:47:27.729Z,21.40
2018-03-24T17:50:01.613Z,18.07
2018-03-24T17:52:36.916Z,20.47
2018-03-24T17:55:12.131Z,19.10
2018-03-24T17:57:45.316Z,19.93
2018-03-24T18:00:19.092Z,19.90
2018-03-24T18:02:53.197Z,22.97
2018-03-24T18:05:27.145Z,21.00
2018-03-24T18:08:01.571Z,20.77
2018-03-24T18:10:36.651Z,21.57
2018-03-24T18:13:10.228Z,22.37
2018-03-24T18:15:43.712Z,20.47
2018-03-24T18:18:17.692Z,20.57
2018-03-24T18:20:52.490Z,23.87
2018-03-24T18:23:25.767Z,20.63
2018-03-24T18:25:59.200Z,20.03
2018-03-24T18:28:32.832Z,23.30
2018-03-24T18:31:08.346Z,19.80
2018-03-24T18:33:43.376Z,19.53
2018-03-24T18:36:20.792Z,20.93
2018-03-24T18:38:58.527Z,20.63
2018-03-24T18:41:34.512Z,17.87
2018-03-24T18:44:08.228Z,18.10
2018-03-24T18:46:41.974Z,18.70
2018-03-24T18:49:16.585Z,18.03
2018-03-24T18:51:49.805Z,19.30
2018-03-24T18:54:24.620Z,19.03
2018-03-24T18:56:59.186Z,18.43
2018-03-24T18:59:33.284Z,18.37
2018-03-24T19:02:06.392Z,18.20
2018-03-24T19:04:40.080Z,19.20
2018-03-24T19:07:13.195Z,19.10
2018-03-24T19:09:47.711Z,19.27
2018-03-24T19:12:22.362Z,18.93
2018-03-24T19:14:57.397Z,19.77
2018-03-24T19:17:35.367Z,18.93
2018-03-24T19:20:09.084Z,19.47
2018-03-24T19:22:43.161Z,19.83
2018-03-24T19:25:17.150Z,19.13
2018-03-24T19:27:51.143Z,19.37
2018-03-24T19:30:25.037Z,18.23
2018-03-24T19:32:59.148Z,17.93
2018-03-24T19:35:33.684Z,20.33
2018-03-24T19:38:07.324Z,19.03
2018-03-24T19:40:40.711Z,21.07
2018-03-24T19:43:13.974Z,22.73
2018-03-24T19:45:48.066Z,19.87
2018-03-24T19:48:29.586Z,19.57
2018-03-24T19:51:03.459Z,20.87
2018-03-24T19:53:37.098Z,19.07
2018-03-24T19:56:10.520Z,18.70
2018-03-24T19:58:43.635Z,19.87
2018-03-24T20:01:16.835Z,19.03
2018-03-24T20:03:51.292Z,18.73
2018-03-24T20:06:25.424Z,19.10
2018-03-24T20:09:00.115Z,19.67
2018-03-24T20:11:33.836Z,20.30
2018-03-24T20:14:07.019Z,20.17
2018-03-24T20:16:41.536Z,20.40
2018-03-24T20:19:14.812Z,19.27
2018-03-24T20:21:50.082Z,21.13
2018-03-24T20:24:29.656Z,21.07
2018-03-24T20:27:03.399Z,21.03
2018-03-24T20:29:36.659Z,21.37
2018-03-24T20:32:10.050Z,21.20
2018-03-24T20:34:43.883Z,21.00
2018-03-24T20:37:16.957Z,19.10
2018-03-24T20:39:50.736Z,18.10
2018-03-24T20:42:24.356Z,18.87
2018-03-24T20:44:58.284Z,19.80
2018-03-24T20:47:31.862Z,20.67
2018-03-24T20:50:06.902Z,21.50
2018-03-24T20:52:40.774Z,21.30
2018-03-24T20:55:14.821Z,20.97
2018-03-24T20:57:48.497Z,21.00
2018-03-24T21:00:22.192Z,19.50
2018-03-24T21:02:56.277Z,20.33
2018-03-24T21:05:30.128Z,19.07
2018-03-24T21:08:03.539Z,19.53
2018-03-24T21:10:38.193Z,20.53
2018-03-24T21:13:11.812Z,21.47
2018-03-24T21:15:45.555Z,20.23
2018-03-24T21:18:20.683Z,20.53
2018-03-24T21:21:07.194Z,19.73
2018-03-24T21:23:42.293Z,21.03
2018-03-24T21:26:15.835Z,21.03
2018-03-24T21:28:49.496Z,19.43
2018-03-24T21:31:22.746Z,20.77
2018-03-24T21:33:56.039Z,21.33
2018-03-24T21:36:29.353Z,21.40
2018-03-24T21:39:05.888Z,21.70
2018-03-24T21:41:39.782Z,20.17
2018-03-24T21:44:12.898Z,20.80
2018-03-24T21:46:46.123Z,22.63
2018-03-24T21:49:19.372Z,22.97
2018-03-24T21:51:52.806Z,22.00
2018-03-24T21:54:29.551Z,23.10
2018-03-24T21:57:05.901Z,22.03
2018-03-24T21:59:39.845Z,22.93
2018-03-24T22:02:15.208Z,23.37
2018-03-24T22:04:49.655Z,22.20
2018-03-24T22:07:25.572Z,21.93
2018-03-24T22:10:00.878Z,21.40
2018-03-24T22:12:36.190Z,21.73
2018-03-24T22:15:12.947Z,23.20
2018-03-24T22:17:48.732Z,23.20
2018-03-24T22:20:24.502Z,23.53
2018-03-24T22:22:59.057Z,24.37
2018-03-24T22:25:32.789Z,22.10
2018-03-24T22:28:06.531Z,20.93
2018-03-24T22:30:39.477Z,21.17
2018-03-24T22:33:13.009Z,22.73
2018-03-24T22:35:47.675Z,22.00
2018-03-24T22:38:21.052Z,20.60
2018-03-24T22:40:54.160Z,20.63
2018-03-24T22:43:27.343Z,20.17
2018-03-24T22:46:01.840Z,19.73
2018-03-24T22:48:34.795Z,19.63
2018-03-24T22:51:09.485Z,18.57
2018-03-24T22:53:42.556Z,20.60
2018-03-24T22:56:15.403Z,19.53
2018-03-24T22:58:48.700Z,21.13
2018-03-24T23:01:22.037Z,21.03
2018-03-24T23:03:54.919Z,20.50
2018-03-24T23:06:28.562Z,19.67
2018-03-24T23:09:02.273Z,20.03
2018-03-24T23:11:35.313Z,18.50
2018-03-24T23:14:08.310Z,18.60
2018-03-24T23:16:41.355Z,21.10
2018-03-24T23:19:14.711Z,21.57
2018-03-24T23:21:47.781Z,20.10
2018-03-24T23:24:20.761Z,18.67
2018-03-24T23:26:54.681Z,19.97
2018-03-24T23:29:27.720Z,20.10
2018-03-24T23:32:00.846Z,19.40
2018-03-24T23:34:34.089Z,20.00
2018-03-24T23:37:07.152Z,19.23
2018-03-24T23:39:40.588Z,18.33
2018-03-24T23:42:14.660Z,19.60
2018-03-24T23:44:47.706Z,18.37
2018-03-24T23:47:21.172Z,17.17
2018-03-24T23:49:55.232Z,18.10
2018-03-24T23:52:28.615Z,18.00
2018-03-24T23:55:03.647Z,17.97
2018-03-24T23:57:37.208Z,17.73
